Time;durP1;ratioP1;P1;durP2;ratioP2;P2;SDS_P1;SDS_P2;PMS_P1;PMS_P2;Temp;Humidity;BMP_temperature;BMP_pressure;BME280_temperature;BME280_humidity;BME280_pressure;Samples;Min_cycle;Max_cycle;Signal;HPM_P1;HPM_P2
2022/10/10 00:01:15;;;;;;;13.15;7.30;;;;;;;;;;5045184;28;20153;-87
2022/10/10 00:03:42;;;;;;;13.43;6.78;;;;;;;;;;5039889;28;20102;-85
2022/10/10 00:06:09;;;;;;;13.63;7.97;;;;;;;;;;5045298;28;20550;-85
2022/10/10 00:08:38;;;;;;;13.95;7.25;;;;;;;;;;5038382;28;20045;-86
2022/10/10 00:11:07;;;;;;;17.80;8.13;;;;;;;;;;5039766;28;20037;-86
2022/10/10 00:13:45;;;;;;;;;;;;;;;;;;;;;
2022/10/10 00:16:11;;;;;;;12.43;6.53;;;;;;;;;;5058284;28;20098;-86
2022/10/10 00:18:38;;;;;;;12.35;7.53;;;;;;;;;;5040624;28;20067;-86
2022/10/10 00:21:05;;;;;;;15.95;7.75;;;;;;;;;;5044130;28;20144;-87
2022/10/10 00:23:32;;;;;;;10.48;7.45;;;;;;;;;;5045030;28;20504;-86
2022/10/10 00:26:02;;;;;;;13.60;7.10;;;;;;;;;;5040756;28;20057;-86
2022/10/10 00:28:29;;;;;;;22.60;8.55;;;;;;;;;;5043098;28;20045;-87
2022/10/10 00:30:55;;;;;;;10.52;6.60;;;;;;;;;;5037661;28;20137;-86
2022/10/10 00:33:22;;;;;;;14.70;7.65;;;;;;;;;;5042689;28;20052;-86
2022/10/10 00:35:49;;;;;;;8.75;6.78;;;;;;;;;;5039891;28;20099;-86
2022/10/10 00:38:16;;;;;;;11.85;6.93;;;;;;;;;;5040780;28;20119;-86
2022/10/10 00:40:47;;;;;;;12.65;7.47;;;;;;;;;;5041461;28;20046;-86
2022/10/10 00:43:15;;;;;;;12.80;7.43;;;;;;;;;;5062279;28;20065;-86
2022/10/10 00:45:42;;;;;;;14.57;8.60;;;;;;;;;;5041401;28;20062;-85
2022/10/10 00:48:12;;;;;;;14.07;7.63;;;;;;;;;;5044837;28;20546;-87
2022/10/10 00:50:46;;;;;;;19.83;8.15;;;;;;;;;;5040818;28;20224;-86
2022/10/10 00:53:14;;;;;;;16.45;7.65;;;;;;;;;;5041665;28;20095;-86
2022/10/10 00:55:41;;;;;;;8.68;6.28;;;;;;;;;;5043258;28;20029;-86
2022/10/10 00:58:08;;;;;;;14.88;7.10;;;;;;;;;;5045605;28;20045;-87
2022/10/10 01:00:36;;;;;;;12.38;6.60;;;;;;;;;;5045563;28;20106;-86
2022/10/10 01:03:03;;;;;;;18.13;7.82;;;;;;;;;;5040727;28;20033;-86
2022/10/10 01:05:30;;;;;;;13.77;8.15;;;;;;;;;;5039396;28;20573;-86
2022/10/10 01:07:57;;;;;;;15.13;8.23;;;;;;;;;;5046731;28;20048;-86
2022/10/10 01:10:24;;;;;;;11.20;7.95;;;;;;;;;;5038501;28;20042;-86
2022/10/10 01:13:00;;;;;;;9.82;6.72;;;;;;;;;;5040630;28;20476;-86
2022/10/10 01:15:32;;;;;;;13.50;8.40;;;;;;;;;;5048206;28;20067;-87
2022/10/10 01:18:05;;;;;;;21.73;8.23;;;;;;;;;;5046962;28;20546;-86
2022/10/10 01:20:48;;;;;;;16.02;8.43;;;;;;;;;;5041922;28;20064;-86
2022/10/10 01:23:35;;;;;;;13.07;8.00;;;;;;;;;;5043001;28;20071;-86
2022/10/10 01:26:12;;;;;;;12.02;7.43;;;;;;;;;;5041714;28;20051;-86
2022/10/10 01:28:44;;;;;;;15.80;8.30;;;;;;;;;;5043263;28;20056;-86
2022/10/10 01:31:14;;;;;;;14.73;7.53;;;;;;;;;;5063172;28;20554;-86
2022/10/10 01:33:44;;;;;;;14.73;8.05;;;;;;;;;;5044437;28;20043;-85
2022/10/10 01:36:16;;;;;;;19.00;8.68;;;;;;;;;;5041727;28;20404;-86
2022/10/10 01:38:49;;;;;;;13.93;7.95;;;;;;;;;;5040755;28;20053;-86
2022/10/10 01:41:18;;;;;;;13.75;8.15;;;;;;;;;;5057602;28;21481;-86
2022/10/10 01:43:46;;;;;;;12.85;7.38;;;;;;;;;;5045401;28;20064;-86
2022/10/10 01:46:14;;;;;;;11.68;8.25;;;;;;;;;;5043007;28;20492;-86
2022/10/10 01:48:43;;;;;;;11.80;7.47;;;;;;;;;;5042747;28;20134;-85
2022/10/10 01:51:22;;;;;;;13.70;7.88;;;;;;;;;;5042896;28;20103;-84
2022/10/10 01:53:53;;;;;;;10.70;7.20;;;;;;;;;;5041206;28;20061;-84
2022/10/10 01:56:25;;;;;;;13.20;7.07;;;;;;;;;;5040995;28;20499;-85
2022/10/10 01:59:03;;;;;;;14.18;8.40;;;;;;;;;;5041956;28;20063;-85
2022/10/10 02:01:35;;;;;;;15.50;7.78;;;;;;;;;;5045464;28;20133;-85
2022/10/10 02:04:05;;;;;;;15.68;8.98;;;;;;;;;;5038497;28;20037;-85
2022/10/10 02:06:36;;;;;;;16.58;8.45;;;;;;;;;;5043191;28;20051;-85
2022/10/10 02:09:04;;;;;;;14.77;8.20;;;;;;;;;;5040693;28;20133;-84
2022/10/10 02:11:32;;;;;;;17.60;8.60;;;;;;;;;;5041741;28;20033;-85
2022/10/10 02:14:03;;;;;;;10.70;7.95;;;;;;;;;;5043247;28;20562;-86
2022/10/10 02:16:31;;;;;;;11.73;9.07;;;;;;;;;;5042228;28;20519;-85
2022/10/10 02:18:59;;;;;;;15.10;8.57;;;;;;;;;;5044585;28;20068;-86
2022/10/10 02:21:29;;;;;;;16.90;8.13;;;;;;;;;;5041754;28;20041;-85
2022/10/10 02:24:01;;;;;;;11.38;7.68;;;;;;;;;;5041830;28;20064;-86
2022/10/10 02:26:28;;;;;;;17.83;9.88;;;;;;;;;;5055953;28;20044;-85
2022/10/10 02:28:57;;;;;;;16.55;7.78;;;;;;;;;;5040837;28;20110;-85
2022/10/10 02:31:31;;;;;;;18.73;8.13;;;;;;;;;;5042363;28;20052;-86
2022/10/10 02:34:03;;;;;;;18.38;8.30;;;;;;;;;;5039355;28;20126;-86
2022/10/10 02:36:30;;;;;;;17.50;8.30;;;;;;;;;;5041007;28;20049;-85
2022/10/10 02:38:58;;;;;;;21.27;8.65;;;;;;;;;;5037842;28;20045;-86
2022/10/10 02:41:25;;;;;;;14.07;8.38;;;;;;;;;;5044457;28;20060;-85
2022/10/10 02:43:52;;;;;;;14.70;8.63;;;;;;;;;;5038332;28;20037;-86
2022/10/10 02:46:19;;;;;;;14.25;9.07;;;;;;;;;;5052658;28;20256;-85
2022/10/10 02:48:47;;;;;;;14.02;8.07;;;;;;;;;;5069720;28;20041;-86
2022/10/10 02:51:15;;;;;;;16.58;8.68;;;;;;;;;;5039734;28;20033;-86
2022/10/10 02:53:42;;;;;;;15.13;8.35;;;;;;;;;;5037876;28;20041;-86
2022/10/10 02:56:08;;;;;;;16.40;9.15;;;;;;;;;;5074565;28;20044;-85
2022/10/10 02:58:35;;;;;;;17.65;9.25;;;;;;;;;;5045067;28;20065;-85
2022/10/10 03:01:02;;;;;;;16.08;9.95;;;;;;;;;;5036938;28;20092;-84
2022/10/10 03:03:28;;;;;;;12.90;8.02;;;;;;;;;;5032240;28;20041;-85
2022/10/10 03:05:57;;;;;;;13.82;9.85;;;;;;;;;;5043962;28;20044;-85
2022/10/10 03:08:23;;;;;;;16.50;9.32;;;;;;;;;;5040308;28;20425;-86
2022/10/10 03:10:57;;;;;;;16.27;8.32;;;;;;;;;;5040697;28;20033;-85
2022/10/10 03:13:23;;;;;;;19.42;9.15;;;;;;;;;;5042491;28;20058;-85
2022/10/10 03:15:52;;;;;;;19.20;9.93;;;;;;;;;;5041710;28;20033;-85
2022/10/10 03:18:19;;;;;;;18.83;8.90;;;;;;;;;;5055492;28;20884;-85
2022/10/10 03:20:45;;;;;;;16.42;9.55;;;;;;;;;;5044072;28;20060;-86
2022/10/10 03:23:14;;;;;;;12.60;8.48;;;;;;;;;;5046649;28;20045;-85
2022/10/10 03:25:45;;;;;;;14.98;9.45;;;;;;;;;;5040395;28;20052;-85
2022/10/10 03:28:12;;;;;;;16.38;9.75;;;;;;;;;;5042004;28;20503;-85
2022/10/10 03:30:42;;;;;;;17.38;8.65;;;;;;;;;;5046265;28;20033;-86
2022/10/10 03:33:09;;;;;;;13.73;9.85;;;;;;;;;;5037698;28;20060;-86
2022/10/10 03:35:36;;;;;;;17.20;9.73;;;;;;;;;;5040346;28;20104;-86
2022/10/10 03:38:04;;;;;;;12.70;8.95;;;;;;;;;;5041460;28;20056;-86
2022/10/10 03:40:39;;;;;;;17.13;8.68;;;;;;;;;;5044866;28;20141;-85
2022/10/10 03:43:06;;;;;;;20.92;9.27;;;;;;;;;;5039762;28;20059;-85
2022/10/10 03:45:33;;;;;;;18.00;10.27;;;;;;;;;;5042416;28;20040;-86
2022/10/10 03:48:02;;;;;;;19.25;9.95;;;;;;;;;;5060578;28;20053;-85
2022/10/10 03:50:28;;;;;;;19.00;9.68;;;;;;;;;;5045930;28;20045;-85
2022/10/10 03:52:55;;;;;;;19.38;9.68;;;;;;;;;;5037668;28;20032;-86
2022/10/10 03:55:22;;;;;;;14.60;8.80;;;;;;;;;;5043456;28;20045;-85
2022/10/10 03:57:50;;;;;;;17.90;8.45;;;;;;;;;;5044034;28;20122;-86
2022/10/10 04:00:17;;;;;;;14.75;8.45;;;;;;;;;;5042633;28;20037;-87
2022/10/10 04:02:43;;;;;;;16.02;9.57;;;;;;;;;;5040710;28;20504;-85
2022/10/10 04:05:10;;;;;;;19.67;8.85;;;;;;;;;;5041950;28;20037;-86
2022/10/10 04:07:37;;;;;;;15.95;10.15;;;;;;;;;;5045291;28;20032;-86
2022/10/10 04:10:04;;;;;;;19.75;10.00;;;;;;;;;;5045037;28;20125;-85
2022/10/10 04:12:30;;;;;;;15.85;9.18;;;;;;;;;;5041489;28;20564;-86
2022/10/10 04:14:58;;;;;;;16.73;9.88;;;;;;;;;;5044789;28;20086;-86
2022/10/10 04:17:25;;;;;;;15.20;8.85;;;;;;;;;;5061990;28;20045;-86
2022/10/10 04:19:51;;;;;;;17.85;10.02;;;;;;;;;;5042210;28;20048;-86
2022/10/10 04:22:18;;;;;;;16.92;9.15;;;;;;;;;;5042980;28;20041;-85
2022/10/10 04:24:45;;;;;;;13.48;9.48;;;;;;;;;;5041246;28;20291;-86
2022/10/10 04:27:12;;;;;;;17.25;10.13;;;;;;;;;;5042934;28;20804;-86
2022/10/10 04:29:38;;;;;;;16.00;10.88;;;;;;;;;;5044771;28;20032;-86
2022/10/10 04:32:07;;;;;;;19.85;10.50;;;;;;;;;;5039202;28;20053;-86
2022/10/10 04:34:34;;;;;;;18.40;9.00;;;;;;;;;;5040889;28;20626;-85
2022/10/10 04:37:00;;;;;;;19.02;9.82;;;;;;;;;;5039323;28;20036;-85
2022/10/10 04:39:27;;;;;;;14.65;9.13;;;;;;;;;;5040739;28;20037;-85
2022/10/10 04:41:53;;;;;;;21.10;10.27;;;;;;;;;;5034309;28;20072;-85
2022/10/10 04:44:20;;;;;;;18.38;10.00;;;;;;;;;;5046189;28;20161;-86
2022/10/10 04:46:47;;;;;;;15.43;9.50;;;;;;;;;;5038582;28;20037;-86
2022/10/10 04:49:15;;;;;;;22.70;10.77;;;;;;;;;;5041167;28;20045;-86
2022/10/10 04:51:41;;;;;;;16.25;10.90;;;;;;;;;;5036443;28;20044;-85
2022/10/10 04:54:12;;;;;;;15.65;10.43;;;;;;;;;;5042169;28;20592;-86
2022/10/10 04:56:40;;;;;;;14.07;8.75;;;;;;;;;;5039933;28;20128;-86
2022/10/10 04:59:07;;;;;;;14.13;8.95;;;;;;;;;;5037692;28;20040;-86
2022/10/10 05:01:34;;;;;;;19.83;10.38;;;;;;;;;;5041716;28;20581;-85
2022/10/10 05:04:01;;;;;;;19.17;10.77;;;;;;;;;;5043766;28;20466;-86
2022/10/10 05:06:29;;;;;;;18.45;11.05;;;;;;;;;;5041757;28;20119;-86
2022/10/10 05:08:56;;;;;;;18.58;9.68;;;;;;;;;;5039587;28;20055;-86
2022/10/10 05:11:22;;;;;;;16.60;10.48;;;;;;;;;;5040796;28;20532;-86
2022/10/10 05:13:49;;;;;;;23.00;10.75;;;;;;;;;;5045527;28;20163;-86
2022/10/10 05:16:17;;;;;;;18.55;10.30;;;;;;;;;;5036880;28;20091;-86
2022/10/10 05:18:44;;;;;;;14.18;9.10;;;;;;;;;;5049760;28;20037;-85
2022/10/10 05:21:10;;;;;;;13.15;8.88;;;;;;;;;;5043852;28;20029;-85
2022/10/10 05:23:40;;;;;;;18.00;10.50;;;;;;;;;;5042264;28;20037;-86
2022/10/10 05:26:07;;;;;;;19.92;9.48;;;;;;;;;;5047152;28;20055;-84
2022/10/10 05:28:35;;;;;;;15.48;9.27;;;;;;;;;;5042777;28;20126;-84
2022/10/10 05:31:02;;;;;;;19.20;11.50;;;;;;;;;;5038547;28;20045;-85
2022/10/10 05:33:28;;;;;;;15.40;9.15;;;;;;;;;;5041687;28;20049;-84
2022/10/10 05:36:00;;;;;;;18.98;9.52;;;;;;;;;;5044068;28;20033;-85
2022/10/10 05:38:27;;;;;;;15.65;10.20;;;;;;;;;;5069333;28;20232;-86
2022/10/10 05:40:56;;;;;;;19.52;11.27;;;;;;;;;;5045470;28;20646;-85
2022/10/10 05:43:22;;;;;;;24.50;11.95;;;;;;;;;;5045341;28;20477;-85
2022/10/10 05:45:49;;;;;;;23.73;9.60;;;;;;;;;;5041448;28;20095;-85
2022/10/10 05:48:16;;;;;;;18.67;10.48;;;;;;;;;;5045293;28;20045;-85
2022/10/10 05:50:46;;;;;;;18.98;10.52;;;;;;;;;;5043718;28;20059;-84
2022/10/10 05:53:13;;;;;;;19.35;10.48;;;;;;;;;;5042445;28;20094;-85
2022/10/10 05:55:39;;;;;;;17.38;9.45;;;;;;;;;;5039965;28;20484;-85
2022/10/10 05:58:07;;;;;;;18.50;10.30;;;;;;;;;;5042856;28;20095;-85
2022/10/10 06:00:35;;;;;;;13.77;9.30;;;;;;;;;;5038969;28;20141;-84
2022/10/10 06:03:02;;;;;;;18.85;10.10;;;;;;;;;;5040812;28;20048;-85
2022/10/10 06:05:28;;;;;;;17.75;9.73;;;;;;;;;;5042233;28;20047;-85
2022/10/10 06:07:55;;;;;;;16.98;8.75;;;;;;;;;;5041096;28;20060;-85
2022/10/10 06:10:21;;;;;;;19.42;10.43;;;;;;;;;;5043906;28;20033;-85
2022/10/10 06:12:48;;;;;;;17.17;10.05;;;;;;;;;;5045577;28;20044;-85
2022/10/10 06:15:16;;;;;;;15.45;9.80;;;;;;;;;;5046794;28;20614;-84
2022/10/10 06:17:42;;;;;;;19.95;10.27;;;;;;;;;;5047559;28;20124;-84
2022/10/10 06:20:09;;;;;;;19.80;10.30;;;;;;;;;;5043205;28;20405;-85
2022/10/10 06:22:36;;;;;;;20.08;10.45;;;;;;;;;;5036516;28;20251;-85
2022/10/10 06:25:03;;;;;;;20.92;10.00;;;;;;;;;;5044613;28;20048;-84
2022/10/10 06:27:31;;;;;;;17.33;10.02;;;;;;;;;;5044278;28;20053;-84
2022/10/10 06:29:58;;;;;;;25.73;11.23;;;;;;;;;;5045274;28;20041;-85
2022/10/10 06:32:26;;;;;;;17.73;10.05;;;;;;;;;;5047491;28;20127;-85
2022/10/10 06:34:53;;;;;;;18.13;9.60;;;;;;;;;;5045547;28;20075;-85
2022/10/10 06:37:19;;;;;;;22.63;9.57;;;;;;;;;;5043592;28;20132;-85
2022/10/10 06:39:46;;;;;;;17.55;9.70;;;;;;;;;;5047879;28;20045;-85
2022/10/10 06:42:12;;;;;;;14.68;9.98;;;;;;;;;;5044608;28;20046;-84
2022/10/10 06:44:39;;;;;;;16.83;9.30;;;;;;;;;;5045994;28;20068;-85
2022/10/10 06:47:07;;;;;;;17.35;10.50;;;;;;;;;;5045812;28;20037;-84
2022/10/10 06:49:35;;;;;;;16.02;9.70;;;;;;;;;;5047864;28;20122;-84
2022/10/10 06:52:01;;;;;;;15.85;9.23;;;;;;;;;;5041807;28;20148;-84
2022/10/10 06:54:28;;;;;;;18.60;10.45;;;;;;;;;;5043614;28;20594;-85
2022/10/10 06:56:54;;;;;;;20.67;9.82;;;;;;;;;;5044051;28;20455;-85
2022/10/10 06:59:21;;;;;;;21.02;11.25;;;;;;;;;;5044013;28;20029;-86
2022/10/10 07:01:47;;;;;;;21.42;10.38;;;;;;;;;;5052622;28;20719;-86
2022/10/10 07:04:14;;;;;;;17.63;10.60;;;;;;;;;;5039460;28;20294;-87
2022/10/10 07:06:43;;;;;;;15.93;11.05;;;;;;;;;;5057130;28;20052;-88
2022/10/10 07:09:10;;;;;;;14.32;10.27;;;;;;;;;;5036809;28;20045;-87
2022/10/10 07:11:37;;;;;;;20.08;10.10;;;;;;;;;;5035115;28;20060;-88
2022/10/10 07:14:08;;;;;;;15.93;10.73;;;;;;;;;;5044657;28;20033;-87
2022/10/10 07:16:35;;;;;;;25.08;10.70;;;;;;;;;;5044393;28;20044;-86
2022/10/10 07:19:01;;;;;;;21.70;11.60;;;;;;;;;;5040570;28;20042;-87
2022/10/10 07:21:28;;;;;;;15.70;10.73;;;;;;;;;;5038703;28;20139;-87
2022/10/10 07:23:58;;;;;;;28.55;11.38;;;;;;;;;;5041212;28;20091;-87
2022/10/10 07:26:29;;;;;;;18.35;9.68;;;;;;;;;;5047360;28;20044;-87
2022/10/10 07:28:56;;;;;;;23.13;10.45;;;;;;;;;;5046311;28;20040;-87
2022/10/10 07:31:23;;;;;;;23.73;10.82;;;;;;;;;;5041310;28;20048;-88
2022/10/10 07:33:50;;;;;;;20.00;10.88;;;;;;;;;;5037982;28;20041;-87
2022/10/10 07:36:18;;;;;;;17.30;10.80;;;;;;;;;;5039555;28;20412;-87
2022/10/10 07:38:50;;;;;;;17.83;9.63;;;;;;;;;;5039938;28;20120;-87
2022/10/10 07:47:35;;;;;;;19.00;10.93;;;;;;;;;;5028256;28;20127;-88
2022/10/10 07:50:02;;;;;;;20.13;10.63;;;;;;;;;;5042632;28;20041;-87
2022/10/10 07:52:31;;;;;;;19.55;10.50;;;;;;;;;;5035314;28;20049;-87
2022/10/10 07:54:57;;;;;;;15.05;9.23;;;;;;;;;;5042790;28;20048;-88
2022/10/10 07:57:24;;;;;;;22.45;10.65;;;;;;;;;;5044701;28;20069;-88
2022/10/10 07:59:51;;;;;;;19.38;10.70;;;;;;;;;;5040279;28;20120;-88
2022/10/10 08:02:17;;;;;;;21.70;10.98;;;;;;;;;;5035878;28;20439;-87
2022/10/10 08:04:45;;;;;;;18.15;10.23;;;;;;;;;;5033036;28;20527;-86
2022/10/10 08:07:14;;;;;;;17.02;10.68;;;;;;;;;;5041024;28;20053;-87
2022/10/10 08:09:40;;;;;;;21.25;10.90;;;;;;;;;;5039723;28;20041;-86
2022/10/10 08:12:07;;;;;;;18.52;10.75;;;;;;;;;;5042996;28;20178;-86
2022/10/10 08:14:34;;;;;;;29.02;10.13;;;;;;;;;;5037315;28;20148;-86
2022/10/10 08:17:02;;;;;;;19.48;10.15;;;;;;;;;;5060162;28;20057;-86
2022/10/10 08:19:29;;;;;;;17.98;11.25;;;;;;;;;;5050459;28;20044;-87
2022/10/10 08:21:57;;;;;;;17.17;10.10;;;;;;;;;;5046457;28;20067;-86
2022/10/10 08:24:23;;;;;;;24.02;10.13;;;;;;;;;;5045101;28;20103;-87
2022/10/10 08:26:50;;;;;;;20.25;10.20;;;;;;;;;;5042426;28;20120;-86
2022/10/10 08:29:17;;;;;;;14.05;9.90;;;;;;;;;;5042249;28;20043;-86
2022/10/10 08:31:43;;;;;;;25.55;10.45;;;;;;;;;;5041584;28;20065;-87
2022/10/10 08:34:16;;;;;;;25.42;10.18;;;;;;;;;;5039335;28;20029;-86
2022/10/10 08:36:43;;;;;;;24.02;9.88;;;;;;;;;;5042861;28;20041;-87
2022/10/10 08:39:13;;;;;;;20.05;10.65;;;;;;;;;;5045544;28;20040;-87
2022/10/10 08:41:45;;;;;;;20.10;9.57;;;;;;;;;;5040206;28;20037;-87
2022/10/10 08:44:14;;;;;;;18.02;9.50;;;;;;;;;;5039825;28;20048;-87
2022/10/10 08:46:42;;;;;;;19.55;9.70;;;;;;;;;;5078256;28;20049;-86
2022/10/10 08:49:16;;;;;;;18.40;8.82;;;;;;;;;;5073322;28;20041;-87
2022/10/10 08:51:45;;;;;;;19.33;9.48;;;;;;;;;;5043695;28;20032;-87
2022/10/10 08:54:14;;;;;;;12.20;8.10;;;;;;;;;;5046536;28;20129;-87
2022/10/10 08:56:42;;;;;;;17.35;8.40;;;;;;;;;;5047095;28;20049;-86
2022/10/10 08:59:12;;;;;;;16.60;8.25;;;;;;;;;;5045648;28;20061;-86
2022/10/10 09:01:39;;;;;;;15.63;8.90;;;;;;;;;;5046172;28;20068;-87
2022/10/10 09:04:08;;;;;;;18.83;8.95;;;;;;;;;;5042805;28;20408;-87
2022/10/10 09:06:51;;;;;;;17.75;9.25;;;;;;;;;;5057831;28;20044;-85
2022/10/10 09:09:25;;;;;;;17.58;9.07;;;;;;;;;;5047573;28;20472;-86
2022/10/10 09:12:10;;;;;;;24.77;9.10;;;;;;;;;;5044846;28;20048;-85
2022/10/10 09:14:39;;;;;;;23.30;9.02;;;;;;;;;;5044098;28;20525;-85
2022/10/10 09:17:13;;;;;;;20.25;8.75;;;;;;;;;;5046694;28;20053;-86
2022/10/10 09:19:50;;;;;;;20.80;8.35;;;;;;;;;;5058870;28;20065;-86
2022/10/10 09:22:20;;;;;;;18.30;9.27;;;;;;;;;;5037185;28;20120;-86
2022/10/10 09:24:49;;;;;;;22.10;10.15;;;;;;;;;;5044009;28;20049;-85
2022/10/10 09:27:20;;;;;;;14.77;7.88;;;;;;;;;;5045729;28;20036;-85
2022/10/10 09:29:49;;;;;;;21.90;8.43;;;;;;;;;;5044194;28;20532;-84
2022/10/10 09:32:19;;;;;;;23.80;8.95;;;;;;;;;;5042650;28;20078;-85
2022/10/10 09:34:48;;;;;;;15.02;8.68;;;;;;;;;;5045044;28;20057;-85
2022/10/10 09:37:15;;;;;;;15.98;9.10;;;;;;;;;;5042245;28;20484;-86
2022/10/10 09:39:45;;;;;;;15.98;8.90;;;;;;;;;;5039734;28;20041;-86
2022/10/10 09:42:13;;;;;;;20.25;9.48;;;;;;;;;;5038851;28;20864;-86
2022/10/10 09:44:42;;;;;;;24.30;8.85;;;;;;;;;;5041419;28;20029;-86
2022/10/10 09:47:10;;;;;;;18.55;8.45;;;;;;;;;;5046356;28;20060;-85
2022/10/10 09:49:36;;;;;;;19.90;8.82;;;;;;;;;;5043726;28;20049;-86
2022/10/10 09:52:13;;;;;;;17.30;9.00;;;;;;;;;;5044113;28;20512;-85
2022/10/10 09:54:41;;;;;;;19.77;9.23;;;;;;;;;;5037912;28;20042;-86
2022/10/10 09:57:10;;;;;;;22.00;9.52;;;;;;;;;;5040526;28;20052;-86
2022/10/10 09:59:38;;;;;;;21.25;9.43;;;;;;;;;;5046707;28;20045;-86
2022/10/10 10:02:15;;;;;;;28.38;10.20;;;;;;;;;;5041105;28;20046;-88
2022/10/10 10:04:42;;;;;;;;;;;;;;;;;;5034110;28;20508;-87
2022/10/10 10:07:20;;;;;;;25.77;9.32;;;;;;;;;;5054919;28;19924;-87
2022/10/10 10:09:47;;;;;;;21.42;9.23;;;;;;;;;;5041677;28;20049;-86
2022/10/10 10:12:14;;;;;;;24.77;9.00;;;;;;;;;;5034089;28;20660;-88
2022/10/10 10:14:42;;;;;;;25.42;9.70;;;;;;;;;;5041739;28;20098;-87
2022/10/10 10:17:09;;;;;;;17.95;8.55;;;;;;;;;;5041786;28;20132;-87
2022/10/10 10:19:40;;;;;;;16.63;9.00;;;;;;;;;;5046417;28;20124;-87
2022/10/10 10:22:22;;;;;;;20.10;8.57;;;;;;;;;;5038573;28;20147;-88
2022/10/10 10:24:52;;;;;;;18.42;8.60;;;;;;;;;;5035099;28;20033;-88
2022/10/10 10:27:19;;;;;;;20.50;8.75;;;;;;;;;;5071094;28;20048;-87
2022/10/10 10:29:50;;;;;;;21.38;8.95;;;;;;;;;;5036292;28;20064;-86
2022/10/10 10:32:23;;;;;;;18.70;7.93;;;;;;;;;;5041962;28;20045;-86
2022/10/10 10:35:00;;;;;;;15.52;8.40;;;;;;;;;;5057374;28;20045;-86
2022/10/10 10:37:29;;;;;;;20.15;8.60;;;;;;;;;;5042357;28;20036;-87
2022/10/10 10:40:12;;;;;;;22.23;8.82;;;;;;;;;;5036878;28;20041;-86
2022/10/10 10:42:44;;;;;;;19.48;8.43;;;;;;;;;;5041364;28;20404;-87
2022/10/10 10:45:15;;;;;;;15.02;8.07;;;;;;;;;;5044367;28;20037;-87
2022/10/10 10:47:44;;;;;;;21.70;8.52;;;;;;;;;;5058105;28;20041;-87
2022/10/10 10:50:32;;;;;;;20.08;9.25;;;;;;;;;;5045946;28;20140;-87
2022/10/10 10:53:04;;;;;;;21.70;8.93;;;;;;;;;;5041583;28;20045;-87
2022/10/10 10:55:35;;;;;;;21.63;8.38;;;;;;;;;;5045724;28;20052;-87
2022/10/10 10:58:21;;;;;;;14.40;7.18;;;;;;;;;;5057731;28;20049;-86
2022/10/10 11:00:55;;;;;;;16.05;8.35;;;;;;;;;;5039936;28;20053;-87
2022/10/10 11:03:27;;;;;;;16.63;8.80;;;;;;;;;;5053096;28;20034;-88
2022/10/10 11:06:03;;;;;;;19.23;8.75;;;;;;;;;;5040204;28;20048;-87
2022/10/10 11:08:54;;;;;;;16.33;8.48;;;;;;;;;;5042394;28;20045;-86
2022/10/10 11:11:25;;;;;;;19.23;7.95;;;;;;;;;;5046953;28;20040;-87
2022/10/10 11:13:54;;;;;;;18.92;8.65;;;;;;;;;;5045121;28;20049;-87
2022/10/10 11:16:23;;;;;;;17.88;8.85;;;;;;;;;;5039870;28;20044;-87
2022/10/10 11:18:56;;;;;;;17.55;8.57;;;;;;;;;;5040334;28;20044;-87
2022/10/10 11:21:25;;;;;;;28.65;10.02;;;;;;;;;;5036658;28;20124;-88
2022/10/10 11:23:54;;;;;;;13.27;8.75;;;;;;;;;;5040817;28;20045;-88
2022/10/10 11:26:24;;;;;;;18.02;9.27;;;;;;;;;;5038024;28;20636;-88
2022/10/10 11:28:53;;;;;;;17.40;8.00;;;;;;;;;;5040618;28;20443;-88
2022/10/10 11:31:21;;;;;;;19.50;9.07;;;;;;;;;;5051076;28;20069;-87
2022/10/10 11:33:51;;;;;;;18.63;8.93;;;;;;;;;;5041260;28;20041;-86
2022/10/10 11:36:20;;;;;;;14.63;9.02;;;;;;;;;;5042030;28;20068;-87
2022/10/10 11:38:52;;;;;;;18.15;9.10;;;;;;;;;;5041243;28;20041;-87
2022/10/10 11:41:22;;;;;;;24.70;8.20;;;;;;;;;;5036077;28;20051;-87
2022/10/10 11:43:52;;;;;;;23.67;8.57;;;;;;;;;;5046968;28;20036;-88
2022/10/10 11:46:24;;;;;;;21.92;8.00;;;;;;;;;;5050085;28;20045;-86
2022/10/10 11:48:55;;;;;;;22.83;9.80;;;;;;;;;;5042410;28;20033;-87
2022/10/10 11:51:30;;;;;;;17.50;8.20;;;;;;;;;;5040364;28;20056;-88
2022/10/10 11:54:00;;;;;;;20.35;9.80;;;;;;;;;;5037963;28;20496;-88
2022/10/10 11:56:30;;;;;;;20.80;9.00;;;;;;;;;;5039373;28;20053;-87
2022/10/10 11:59:00;;;;;;;20.75;8.93;;;;;;;;;;5046292;28;20044;-87
2022/10/10 12:01:28;;;;;;;25.13;9.15;;;;;;;;;;5044132;28;20123;-88
2022/10/10 12:03:56;;;;;;;14.68;8.95;;;;;;;;;;5045097;28;20041;-87
2022/10/10 12:06:26;;;;;;;22.80;9.27;;;;;;;;;;5047964;28;20049;-87
2022/10/10 12:08:58;;;;;;;17.45;9.00;;;;;;;;;;5046914;28;20070;-86
2022/10/10 12:11:31;;;;;;;24.60;9.30;;;;;;;;;;5041599;28;20069;-86
2022/10/10 12:14:01;;;;;;;17.20;9.10;;;;;;;;;;5044326;28;20045;-87
2022/10/10 12:16:36;;;;;;;19.77;9.07;;;;;;;;;;5038000;28;20041;-87
2022/10/10 12:19:04;;;;;;;19.30;9.13;;;;;;;;;;5046295;28;20040;-85
2022/10/10 12:21:32;;;;;;;20.77;9.88;;;;;;;;;;5074478;28;20053;-87
2022/10/10 12:24:04;;;;;;;20.60;9.07;;;;;;;;;;5044327;28;20075;-87
2022/10/10 12:26:49;;;;;;;26.13;10.32;;;;;;;;;;5046153;28;20176;-87
2022/10/10 12:29:43;;;;;;;27.45;10.10;;;;;;;;;;5059921;28;20760;-87
2022/10/10 12:32:10;;;;;;;25.73;10.32;;;;;;;;;;5041004;28;20405;-86
2022/10/10 12:34:41;;;;;;;20.90;10.25;;;;;;;;;;5041706;28;20522;-85
2022/10/10 12:37:19;;;;;;;24.38;10.65;;;;;;;;;;5047408;28;20911;-85
2022/10/10 12:40:16;;;;;;;28.20;12.00;;;;;;;;;;5046323;28;20045;-87
2022/10/10 12:43:00;;;;;;;18.27;10.80;;;;;;;;;;4964318;28;20795;-86
2022/10/10 12:45:48;;;;;;;26.05;11.80;;;;;;;;;;5036394;28;20064;-86
2022/10/10 12:48:22;;;;;;;24.00;11.93;;;;;;;;;;5045744;28;20068;-87
2022/10/10 12:50:55;;;;;;;23.67;13.15;;;;;;;;;;5045058;28;20041;-86
2022/10/10 12:53:23;;;;;;;31.85;12.90;;;;;;;;;;5046124;28;20049;-86
2022/10/10 12:55:51;;;;;;;24.17;11.55;;;;;;;;;;5045791;28;20041;-87
2022/10/10 12:58:22;;;;;;;24.30;12.27;;;;;;;;;;5056646;28;20037;-86
2022/10/10 13:00:49;;;;;;;29.80;13.35;;;;;;;;;;5041284;28;20037;-86
2022/10/10 13:03:17;;;;;;;27.17;12.35;;;;;;;;;;5056105;28;20419;-87
2022/10/10 13:05:50;;;;;;;20.70;12.00;;;;;;;;;;5044700;28;20044;-87
2022/10/10 13:08:20;;;;;;;28.02;12.07;;;;;;;;;;5043636;28;21378;-86
2022/10/10 13:11:01;;;;;;;26.50;12.45;;;;;;;;;;5040052;28;20915;-87
2022/10/10 13:13:33;;;;;;;26.35;13.20;;;;;;;;;;5045463;28;20096;-87
2022/10/10 13:16:07;;;;;;;22.58;13.82;;;;;;;;;;5047016;28;20132;-86
2022/10/10 13:18:37;;;;;;;26.88;12.82;;;;;;;;;;5034884;28;20052;-87
2022/10/10 13:21:06;;;;;;;21.48;13.20;;;;;;;;;;5044201;28;20126;-87
2022/10/10 13:23:36;;;;;;;30.15;14.93;;;;;;;;;;5060424;28;20147;-84
2022/10/10 13:26:05;;;;;;;30.40;14.65;;;;;;;;;;5043886;28;20045;-86
2022/10/10 13:28:32;;;;;;;27.38;15.13;;;;;;;;;;5056483;28;20037;-86
2022/10/10 13:30:59;;;;;;;25.42;13.40;;;;;;;;;;5041047;28;20050;-87
2022/10/10 13:33:30;;;;;;;26.73;15.10;;;;;;;;;;5038406;28;20060;-87
2022/10/10 13:36:03;;;;;;;29.42;16.35;;;;;;;;;;5041051;28;20041;-87
2022/10/10 13:38:35;;;;;;;23.10;14.23;;;;;;;;;;5038529;28;20045;-87
2022/10/10 13:41:17;;;;;;;24.23;12.98;;;;;;;;;;5038253;28;20045;-87
2022/10/10 13:43:46;;;;;;;28.15;12.77;;;;;;;;;;5033057;28;20124;-88
2022/10/10 13:46:20;;;;;;;24.90;11.55;;;;;;;;;;5036657;28;20048;-87
2022/10/10 13:48:49;;;;;;;25.83;11.55;;;;;;;;;;5041657;28;20512;-87
2022/10/10 13:51:19;;;;;;;27.50;9.90;;;;;;;;;;5044694;28;20145;-88
2022/10/10 13:53:51;;;;;;;25.13;10.23;;;;;;;;;;5041245;28;20064;-88
2022/10/10 13:56:36;;;;;;;14.85;5.43;;;;;;;;;;5073182;28;20121;-85
2022/10/10 13:59:11;;;;;;;8.35;2.85;;;;;;;;;;5041080;28;20076;-87
2022/10/10 14:02:14;;;;;;;11.40;2.40;;;;;;;;;;5040380;28;20618;-87
2022/10/10 14:07:56;;;;;;;4.93;1.63;;;;;;;;;;5039380;28;20084;-86
2022/10/10 14:10:35;;;;;;;2.55;0.93;;;;;;;;;;5038324;28;20041;-87
2022/10/10 14:17:15;;;;;;;;;;;;;;;;;;;;;
2022/10/10 14:23:00;;;;;;;4.53;0.82;;;;;;;;;;5053234;28;20048;-87
2022/10/10 14:29:10;;;;;;;5.05;1.10;;;;;;;;;;4956271;28;20072;-88
2022/10/10 14:32:01;;;;;;;7.18;1.48;;;;;;;;;;4979522;28;20068;-87
2022/10/10 14:34:58;;;;;;;6.75;1.48;;;;;;;;;;5039328;28;20045;-87
2022/10/10 14:37:58;;;;;;;9.45;1.77;;;;;;;;;;5038889;28;20148;-88
2022/10/10 14:40:42;;;;;;;8.18;1.80;;;;;;;;;;5020746;28;20055;-86
2022/10/10 14:43:29;;;;;;;9.02;2.03;;;;;;;;;;5032476;28;20056;-87
2022/10/10 14:46:02;;;;;;;9.60;1.95;;;;;;;;;;5033565;28;20596;-87
2022/10/10 14:49:01;;;;;;;;;;;;;;;;;;;;;
2022/10/10 14:54:33;;;;;;;13.88;3.03;;;;;;;;;;5022032;28;20037;-87
2022/10/10 15:00:43;;;;;;;20.17;3.13;;;;;;;;;;5038497;28;20934;-86
2022/10/10 15:03:10;;;;;;;17.38;3.33;;;;;;;;;;5040224;28;20693;-86
2022/10/10 15:08:41;;;;;;;21.92;3.20;;;;;;;;;;5028828;28;20073;-85
2022/10/10 15:14:24;;;;;;;22.42;3.10;;;;;;;;;;5007985;28;20084;-86
2022/10/10 15:20:37;;;;;;;27.13;3.70;;;;;;;;;;5032680;28;20616;-85
2022/10/10 15:23:17;;;;;;;16.05;3.85;;;;;;;;;;5037445;28;20650;-87